Pagina principale
METAR-TAF:

METAR-TAF

Aeroporti :

Saint-Brieuc, Francia

latitudine: 48-32N, longitudine: 002-51W, altezza: 138 m

Osservazione

Il bollettino è stato emesso 8 ore e 27 minuti fa, alle 22:00 UTC
Vento 2 kt da direzioni variabili
Temperature 5°C
Umidità 100%
Pressione 1012 hPa
Visibilità: 9000 m
Poco nuvoloso ad un'altezza di 2000 ft
Cielo coperto ad un'altezza di 3500 ft
pioggia debole

METAR: LFRT 172200Z AUTO VRB02KT 9000 -RA FEW020 OVC035 05/05 Q1012

Ora: 07:27 (06:27 UTC)


TAF: mancante

Osservazioni e previsioni meteorologiche di più di 4000 aeroporti (messaggi METAR e TAF).

Le stazioni disponibili sono rappresentate dai dischi gialli e rossi sulla carta.

Puntare il mouse per vedere il nome della stazione.

Clicca sopra per visualizzare le osservazioni e previsioni meteorologiche.

Per cambiare la mappa : fare clic sui pulsanti verdi con una croce nera per ingrandire, il pulsante verde con un trattino per diminuire, o sulla freccia verde per le mappe adiacenti.


METAR-TAF: